Aérodrome :
LOGIN :

S'inscrire | Disclaimer

   EN    FR    IT 

 










Légende :    VFR   VFR Marginal   IFR   IFR Intensif   IFR Très Intensif
Visi : 
Plafond : 
>= 8 km
>= 3000ft
5 à 8 km
1000 à 3000 ft
1500m à 5 km
500 à 1000 ft
800 à 1500m
200 à 500 ft
< 800m
< 200 ft
Symboles :   Orages  Brouillard  Fortes neiges  Fortes précipitations  Vent > 20 kt
SIGMETs :   Divers  Orages  Givrage  Turbulence  Onde Orograph.  Cendres Volcan.







- Altitude de l'aérodrome : 74 ft
- Code IATA : EIN


EHEH - Eindhoven

DERNIER METAR :
  • 240955Z AUTO 11005KT 080V170 5000 BR NCD 16/12 Q1023 WHT 12005KT 4500 BR NSC BECMG 7000 NSW

METARs EXPIRÉS :
  • 240943Z AUTO 09005KT 070V200 5000 BR FEW160 15/12 Q1023 WHT 12005KT 4500 BR NSC BECMG 7000 NSW
  • 240937Z AUTO 10005KT 110V200 4700 BR FEW130 15/12 Q1023 GRN 12005KT 4500 BR NSC BECMG 7000 NSW
  • 240925Z AUTO 13005KT 130V210 3900 BR NCD 14/12 Q1023 GRN 13004KT 3000 BR NSC BECMG 6000 NSW
  • 240907Z AUTO 15004KT 090V240 3100 R21/P3000N BR SCT150 14/12 Q1023 YLO 13004KT 3000 BR NSC BECMG 6000 NSW
  • 240855Z AUTO 13004KT 030V150 2700 R21/P3000N BR FEW005 14/12 Q1023 YLO 09003KT 3000 BR SCT003 TEMPO 0200 BCFG BKN002
  • 240839Z AUTO VRB03KT 2200 R21/P3000N BR FEW006 14/12 Q1023 YLO 09003KT 3000 BR SCT003 TEMPO 0200 BCFG BKN002
  • 240826Z AUTO VRB02KT 1600 R21/P3000N BR NCD 13/12 Q1023 YLO 09003KT 3000 BR SCT003 TEMPO 0200 BCFG BKN002
  • 240825Z AUTO VRB02KT 1300 R21/P3000N BR FEW400 13/12 Q1023 AMB 09003KT 3000 BR SCT003 TEMPO 0200 BCFG BKN002
  • 240811Z AUTO VRB02KT 1000 R21/P3000N BR SCT190 13/12 Q1023 AMB 09003KT 3000 BR SCT003 TEMPO 0200 BCFG BKN002
  • 240755Z AUTO VRB02KT 0650 R03/1200D FG FEW002 12/11 Q1023 RED VRB02KT 3000 BR SCT003 TEMPO 0200 BCFG BKN002
  • 240745Z AUTO VRB01KT 2700 R03/2700D BR BKN003 BKN150 11/10 Q1023 YLO VRB02KT 3000 BR SCT003 TEMPO BKN002
  • 240736Z AUTO VRB01KT 3000 R03/3000D BR BKN002 BKN150 11/10 Q1023 AMB VRB02KT 3000 BR SCT003 TEMPO BKN002
  • 240725Z AUTO 00000KT 3300 R03/P3000D BR FEW002 10/10 Q1023 YLO VRB02KT 3000 BR NSC BECMG 6000 NSW

TAF TAF EHEH
Valide du 24 à 06h jusqu'au 25 à 12h UTC


240451Z 2406/2512 VRB03KT 1500 BR MIFG
PROB40
TEMPO 2406/2410 0400 BCFG SCT003
BECMG 2408/2411 09005KT 9999 NSW FEW020
BECMG 2422/2500 VRB03KT 3000 BR MIFG
PROB40
TEMPO 2502/2508 0500 BCFG SCT003
BECMG 2507/2509 07007KT 9999 NSW SCT020
Pas de NOTAMs connus pour ce terrain.



MET'MAP, la Météo Aéronautique d'un coup d'oeil ! - Copyright ORBIFLY Décembre 2007 - Disclaimer

ORBIFLY MET'MAP TEAM :

Programmation & Développement : Alexandra Zaïnal
Conception & Développement : Baudouin d'Aumeries
Co-Programmation & Développement : Marc-Olivier Méhu
Soutien technique & logistique : Manuel Goepfert

Contact : metmap@orbifly.com




SOURCES & CREDITS :

   NOAA